Solebury, Pennsylvania
Current Conditions -  °F | °C
As of 12:54 PM on Thursday 30 Oct 2014 (Local Time) from KDYL Reporting Station
Few Clouds Few Clouds  
Wind Chill: 56°   Ceiling: Unl
Heat Index: 56°   Visibility: 10mi
Dew Point: 40°   Wind: 10mph
Humidity: 55%   Direction: 320°NW
Pressure: 30.01"   Gusts: NA
Location:  40.38°N, 75.01°W
Report Text: KDYL 301654Z AUTO 32009KT 10SM FEW036 13/04 A3001 RMK AO2 SLP163 T01330044 $
Loading
Personal Weather Stations






























Interactive Weather Map
Tropical Storm Tracking
New forecast layout! Learn more

10-Day Weather Forecast

Advertisements
Track Severe Weather on mobile